createdAt,value
2019-05-26T00:02:13.779Z,100534.38
2019-05-26T00:04:42.201Z,100529.45
2019-05-26T00:07:10.602Z,100527.58
2019-05-26T00:09:39.418Z,100529.45
2019-05-26T00:12:07.793Z,100529.28
2019-05-26T00:14:37.716Z,100530.14
2019-05-26T00:17:06.108Z,100528.19
2019-05-26T00:19:34.519Z,100532.70
2019-05-26T00:22:02.890Z,100533.16
2019-05-26T00:24:31.304Z,100527.97
2019-05-26T00:26:59.697Z,100525.25
2019-05-26T00:29:28.074Z,100520.90
2019-05-26T00:31:56.677Z,100522.68
2019-05-26T00:34:25.055Z,100529.20
2019-05-26T00:36:53.534Z,100530.84
2019-05-26T00:39:22.013Z,100528.16
2019-05-26T00:41:50.419Z,100528.99
2019-05-26T00:44:20.663Z,100528.80
2019-05-26T00:46:49.260Z,100529.91
2019-05-26T00:49:17.654Z,100528.14
2019-05-26T00:51:46.194Z,100522.28
2019-05-26T00:54:14.661Z,100519.98
2019-05-26T00:56:43.258Z,100518.02
2019-05-26T00:59:11.654Z,100514.66
2019-05-26T01:01:40.094Z,100512.45
2019-05-26T01:04:08.614Z,100514.05
2019-05-26T01:06:37.014Z,100520.20
2019-05-26T01:09:07.619Z,100514.34
2019-05-26T01:11:36.230Z,100513.73
2019-05-26T01:14:04.970Z,100518.73
2019-05-26T01:16:34.916Z,100516.02
2019-05-26T01:19:04.568Z,100506.92
2019-05-26T01:21:32.983Z,100487.61
2019-05-26T01:24:01.368Z,100518.84
2019-05-26T01:26:29.781Z,100517.05
2019-05-26T01:28:58.181Z,100523.09
2019-05-26T01:31:26.595Z,100516.41
2019-05-26T01:33:54.984Z,100511.30
2019-05-26T01:36:23.447Z,100509.30
2019-05-26T01:38:53.494Z,100514.31
2019-05-26T01:41:21.882Z,100515.58
2019-05-26T01:43:50.363Z,100522.56
2019-05-26T01:46:18.707Z,100526.19
2019-05-26T01:48:47.128Z,100528.91
2019-05-26T01:51:15.517Z,100512.79
2019-05-26T01:53:43.949Z,100538.16
2019-05-26T01:56:12.338Z,100539.81
2019-05-26T01:58:40.854Z,100536.35
2019-05-26T02:01:11.332Z,100535.70
2019-05-26T02:03:39.443Z,100540.08
2019-05-26T02:06:07.839Z,100540.93
2019-05-26T02:08:39.777Z,100542.58
2019-05-26T02:11:07.880Z,100550.50
2019-05-26T02:13:36.286Z,100555.03
2019-05-26T02:16:05.156Z,100548.04
2019-05-26T02:18:33.579Z,100545.73
2019-05-26T02:21:02.089Z,100544.77
2019-05-26T02:23:32.086Z,100552.29
2019-05-26T02:26:00.542Z,100553.00
2019-05-26T02:28:28.947Z,100549.83
2019-05-26T02:30:58.881Z,100551.42
2019-05-26T02:33:28.817Z,100552.13
2019-05-26T02:35:57.485Z,100550.66
2019-05-26T02:38:26.656Z,100546.14
2019-05-26T02:40:55.491Z,100550.30
2019-05-26T02:43:23.896Z,100555.16
2019-05-26T02:45:52.366Z,100554.90
2019-05-26T02:48:20.773Z,100557.34
2019-05-26T02:50:49.489Z,100558.98
2019-05-26T02:53:24.402Z,100567.00
2019-05-26T02:55:49.576Z,100567.70
2019-05-26T02:58:18.288Z,100565.08
2019-05-26T03:00:47.822Z,100566.81
2019-05-26T03:03:16.955Z,100570.03
2019-05-26T03:05:47.002Z,100574.95
2019-05-26T03:08:16.527Z,100573.78
2019-05-26T03:10:45.447Z,100574.17
2019-05-26T03:13:15.494Z,100566.25
2019-05-26T03:15:45.747Z,100566.44
2019-05-26T03:18:14.303Z,100563.92
2019-05-26T03:20:43.756Z,100557.11
2019-05-26T03:23:12.321Z,100556.72
2019-05-26T03:25:40.786Z,100559.42
2019-05-26T03:28:09.242Z,100559.47
2019-05-26T03:30:38.184Z,100560.71
2019-05-26T03:33:06.856Z,100558.39
2019-05-26T03:35:35.344Z,100560.20
2019-05-26T03:38:04.652Z,100559.16
2019-05-26T03:40:33.063Z,100529.54
2019-05-26T03:43:01.610Z,100560.59
2019-05-26T03:45:35.672Z,100562.65
2019-05-26T03:48:04.541Z,100563.70
2019-05-26T03:50:32.928Z,100527.50
2019-05-26T03:53:01.430Z,100560.67
2019-05-26T03:55:29.843Z,100561.49
2019-05-26T03:57:58.228Z,100561.84
2019-05-26T04:00:26.778Z,100561.10
2019-05-26T04:02:55.232Z,100564.27
2019-05-26T04:05:23.790Z,100565.63
2019-05-26T04:07:52.195Z,100569.61
2019-05-26T04:10:20.584Z,100576.95
2019-05-26T04:12:48.978Z,100573.00
2019-05-26T04:15:17.367Z,100579.19
2019-05-26T04:17:45.777Z,100580.47
2019-05-26T04:20:15.035Z,100575.27
2019-05-26T04:22:43.446Z,100554.33
2019-05-26T04:25:11.925Z,100577.09
2019-05-26T04:27:40.702Z,100571.80
2019-05-26T04:30:10.960Z,100568.11
2019-05-26T04:32:39.372Z,100575.24
2019-05-26T04:35:07.831Z,100572.16
2019-05-26T04:37:36.253Z,100573.86
2019-05-26T04:40:25.067Z,100578.48
2019-05-26T04:42:37.851Z,100585.09
2019-05-26T04:45:10.563Z,100581.16
2019-05-26T04:47:39.126Z,100579.31
2019-05-26T04:50:07.975Z,100580.27
2019-05-26T04:52:36.425Z,100582.98
2019-05-26T04:55:09.131Z,100586.15
2019-05-26T04:57:37.560Z,100582.86
2019-05-26T05:00:08.387Z,100589.95
2019-05-26T05:02:38.406Z,100595.61
2019-05-26T05:05:10.084Z,100593.66
2019-05-26T05:07:38.641Z,100593.16
2019-05-26T05:10:07.862Z,100595.80
2019-05-26T05:12:36.527Z,100592.64
2019-05-26T05:15:08.801Z,100597.13
2019-05-26T05:17:37.316Z,100594.31
2019-05-26T05:20:09.123Z,100589.58
2019-05-26T05:22:37.851Z,100589.13
2019-05-26T05:25:14.697Z,100595.60
2019-05-26T05:27:39.586Z,100600.68
2019-05-26T05:30:09.264Z,100601.79
2019-05-26T05:32:38.198Z,100608.64
2019-05-26T05:35:08.572Z,100608.50
2019-05-26T05:37:37.097Z,100603.11
2019-05-26T05:40:09.570Z,100600.81
2019-05-26T05:42:38.290Z,100600.81
2019-05-26T05:45:09.074Z,100617.03
2019-05-26T05:47:37.551Z,100616.40
2019-05-26T05:50:10.717Z,100619.03
2019-05-26T05:52:39.109Z,100613.33
2019-05-26T05:55:08.391Z,100619.12
2019-05-26T05:57:36.855Z,100625.28
2019-05-26T06:00:10.284Z,100611.94
2019-05-26T06:02:38.699Z,100618.97
2019-05-26T06:05:08.376Z,100618.72
2019-05-26T06:07:38.521Z,100616.91
2019-05-26T06:10:10.584Z,100617.83
2019-05-26T06:12:40.549Z,100609.49
2019-05-26T06:15:10.711Z,100615.78
2019-05-26T06:17:39.152Z,100615.84
2019-05-26T06:20:09.713Z,100617.73
2019-05-26T06:22:38.194Z,100610.63
2019-05-26T06:25:07.445Z,100617.45
2019-05-26T06:27:35.877Z,100607.27
2019-05-26T06:30:06.423Z,100605.99
2019-05-26T06:32:34.827Z,100608.76
2019-05-26T06:35:03.262Z,100610.78
2019-05-26T06:37:31.663Z,100606.41
2019-05-26T06:40:00.182Z,100606.01
2019-05-26T06:42:28.608Z,100610.54
2019-05-26T06:44:57.149Z,100614.36
2019-05-26T06:47:25.555Z,100614.91
2019-05-26T06:49:53.963Z,100615.93
2019-05-26T06:52:22.369Z,100615.19
2019-05-26T06:54:50.762Z,100621.45
2019-05-26T06:57:19.269Z,100621.38
2019-05-26T06:59:47.654Z,100619.91
2019-05-26T07:02:16.130Z,100619.95
2019-05-26T07:04:44.562Z,100619.71
2019-05-26T07:07:12.997Z,100625.72
2019-05-26T07:09:41.554Z,100627.34
2019-05-26T07:12:09.913Z,100620.73
2019-05-26T07:14:38.453Z,100613.20
2019-05-26T07:17:08.387Z,100615.50
2019-05-26T07:19:36.859Z,100619.62
2019-05-26T07:22:06.858Z,100625.84
2019-05-26T07:24:35.365Z,100621.03
2019-05-26T07:27:04.663Z,100609.64
2019-05-26T07:29:33.039Z,100603.63
2019-05-26T07:32:01.599Z,100610.15
2019-05-26T07:34:30.042Z,100614.16
2019-05-26T07:36:58.943Z,100608.03
2019-05-26T07:39:27.787Z,100608.14
2019-05-26T07:42:09.446Z,100610.83
2019-05-26T07:44:26.327Z,100613.44
2019-05-26T07:46:54.838Z,100610.48
2019-05-26T07:49:23.333Z,100615.48
2019-05-26T07:51:53.334Z,100607.89
2019-05-26T07:54:25.577Z,100610.71
2019-05-26T07:56:53.384Z,100617.75
2019-05-26T07:59:24.109Z,100615.98
2019-05-26T08:01:52.633Z,100614.42
2019-05-26T08:04:21.058Z,100614.59
2019-05-26T08:06:49.494Z,100618.73
2019-05-26T08:09:17.890Z,100620.42
2019-05-26T08:11:46.621Z,100618.98
2019-05-26T08:14:15.025Z,100619.19
2019-05-26T08:16:43.422Z,100617.80
2019-05-26T08:19:11.916Z,100612.48
2019-05-26T08:21:40.552Z,100614.02
2019-05-26T08:24:08.987Z,100609.27
2019-05-26T08:26:37.368Z,100615.44
2019-05-26T08:29:05.846Z,100612.95
2019-05-26T08:31:34.249Z,100611.30
2019-05-26T08:34:02.847Z,100615.25
2019-05-26T08:36:31.380Z,100621.39
2019-05-26T08:38:59.802Z,100622.23
2019-05-26T08:41:28.237Z,100612.01
2019-05-26T08:43:56.830Z,100613.67
2019-05-26T08:46:25.340Z,100611.73
2019-05-26T08:48:53.776Z,100607.60
2019-05-26T08:51:22.472Z,100606.76
2019-05-26T08:53:51.037Z,100604.79
2019-05-26T08:56:19.444Z,100598.17
2019-05-26T08:58:48.094Z,100594.58
2019-05-26T09:01:16.489Z,100595.67
2019-05-26T09:03:46.413Z,100594.81
2019-05-26T09:06:14.919Z,100595.08
2019-05-26T09:08:43.335Z,100595.93
2019-05-26T09:11:11.808Z,100585.91
2019-05-26T09:13:40.212Z,100580.84
2019-05-26T09:16:08.623Z,100587.21
2019-05-26T09:18:37.027Z,100586.80
2019-05-26T09:21:05.418Z,100586.80
2019-05-26T09:23:33.823Z,100594.77
2019-05-26T09:26:02.239Z,100554.61
2019-05-26T09:28:30.693Z,100584.48
2019-05-26T09:30:59.210Z,100583.64
2019-05-26T09:33:27.597Z,100584.05
2019-05-26T09:35:56.014Z,100580.63
2019-05-26T09:38:24.412Z,100580.38
2019-05-26T09:40:52.960Z,100578.56
2019-05-26T09:43:21.573Z,100576.37
2019-05-26T09:45:51.533Z,100575.47
2019-05-26T09:48:20.000Z,100582.38
2019-05-26T09:50:49.080Z,100580.08
2019-05-26T09:53:17.479Z,100572.55
2019-05-26T09:55:45.887Z,100577.50
2019-05-26T09:58:14.368Z,100582.12
2019-05-26T10:00:44.316Z,100569.09
2019-05-26T10:03:13.359Z,100567.40
2019-05-26T10:05:42.425Z,100564.13
2019-05-26T10:08:10.940Z,100559.44
2019-05-26T10:10:39.358Z,100558.53
2019-05-26T10:13:07.742Z,100551.05
2019-05-26T10:15:36.206Z,100552.93
2019-05-26T10:18:06.171Z,100554.17
2019-05-26T10:20:34.591Z,100558.09
2019-05-26T10:23:03.197Z,100557.04
2019-05-26T10:25:31.601Z,100554.09
2019-05-26T10:28:00.124Z,100554.97
2019-05-26T10:30:28.536Z,100547.97
2019-05-26T10:32:56.984Z,100550.52
2019-05-26T10:35:25.579Z,100540.97
2019-05-26T10:37:53.967Z,100544.33
2019-05-26T10:40:22.549Z,100545.42
2019-05-26T10:42:51.030Z,100541.19
2019-05-26T10:45:20.131Z,100532.35
2019-05-26T10:47:48.653Z,100535.77
2019-05-26T10:50:17.397Z,100536.27
2019-05-26T10:52:46.038Z,100530.17
2019-05-26T10:55:14.727Z,100522.11
2019-05-26T10:57:43.166Z,100520.59
2019-05-26T11:00:13.880Z,100514.98
2019-05-26T11:02:42.296Z,100518.25
2019-05-26T11:05:10.890Z,100511.06
2019-05-26T11:07:39.292Z,100510.52
2019-05-26T11:10:08.318Z,100502.23
2019-05-26T11:12:36.844Z,100498.41
2019-05-26T11:15:09.701Z,100500.98
2019-05-26T11:17:38.257Z,100493.78
2019-05-26T11:20:12.193Z,100500.30
2019-05-26T11:22:40.639Z,100477.84
2019-05-26T11:25:11.491Z,100492.54
2019-05-26T11:27:39.909Z,100493.03
2019-05-26T11:30:10.824Z,100488.22
2019-05-26T11:32:40.808Z,100489.70
2019-05-26T11:35:10.167Z,100489.27
2019-05-26T11:37:42.951Z,100481.59
2019-05-26T11:40:13.106Z,100463.23
2019-05-26T11:42:44.607Z,100464.88
2019-05-26T11:45:12.051Z,100469.06
2019-05-26T11:47:40.575Z,100435.56
2019-05-26T11:50:09.500Z,100458.52
2019-05-26T11:52:38.177Z,100458.23
2019-05-26T11:55:09.909Z,100451.64
2019-05-26T11:57:38.513Z,100459.30
2019-05-26T12:00:16.339Z,100452.91
2019-05-26T12:02:46.036Z,100448.28
2019-05-26T12:05:17.643Z,100449.02
2019-05-26T12:07:45.860Z,100438.81
2019-05-26T12:10:14.890Z,100439.27
2019-05-26T12:12:44.853Z,100431.17
2019-05-26T12:15:15.506Z,100435.31
2019-05-26T12:17:44.069Z,100441.55
2019-05-26T12:20:12.661Z,100433.84
2019-05-26T12:22:41.143Z,100424.94
2019-05-26T12:25:10.207Z,100427.81
2019-05-26T12:27:38.644Z,100421.64
2019-05-26T12:30:10.168Z,100422.03
2019-05-26T12:32:38.742Z,100422.53
2019-05-26T12:35:10.998Z,100420.22
2019-05-26T12:37:40.567Z,100416.91
2019-05-26T12:40:10.932Z,100412.94
2019-05-26T12:42:39.419Z,100411.98
2019-05-26T12:45:09.870Z,100408.08
2019-05-26T12:47:38.701Z,100401.43
2019-05-26T12:50:09.667Z,100396.34
2019-05-26T12:52:38.144Z,100399.03
2019-05-26T12:55:09.279Z,100393.81
2019-05-26T12:57:38.006Z,100401.30
2019-05-26T13:00:10.525Z,100388.69
2019-05-26T13:02:38.942Z,100393.23
2019-05-26T13:05:08.676Z,100389.03
2019-05-26T13:07:37.232Z,100387.23
2019-05-26T13:10:09.396Z,100379.96
2019-05-26T13:12:42.268Z,100382.70
2019-05-26T13:15:12.728Z,100382.72
2019-05-26T13:17:41.128Z,100383.28
2019-05-26T13:20:10.665Z,100389.27
2019-05-26T13:22:40.587Z,100373.36
2019-05-26T13:25:11.299Z,100383.05
2019-05-26T13:27:39.769Z,100376.00
2019-05-26T13:30:11.249Z,100373.58
2019-05-26T13:32:39.640Z,100364.53
2019-05-26T13:35:09.265Z,100367.77
2019-05-26T13:37:37.734Z,100369.32
2019-05-26T13:40:07.994Z,100363.13
2019-05-26T13:42:37.064Z,100360.01
2019-05-26T13:45:21.880Z,100353.81
2019-05-26T13:47:40.355Z,100357.27
2019-05-26T13:50:09.815Z,100355.23
2019-05-26T13:52:38.226Z,100355.52
2019-05-26T13:55:08.940Z,100346.67
2019-05-26T13:57:37.350Z,100343.58
2019-05-26T14:00:08.755Z,100347.26
2019-05-26T14:02:37.317Z,100338.55
2019-05-26T14:05:08.903Z,100343.66
2019-05-26T14:07:37.353Z,100351.23
2019-05-26T14:10:08.226Z,100351.52
2019-05-26T14:12:36.716Z,100344.47
2019-05-26T14:15:09.748Z,100344.36
2019-05-26T14:17:42.894Z,100344.89
2019-05-26T14:20:13.125Z,100340.53
2019-05-26T14:22:41.542Z,100344.42
2019-05-26T14:25:10.287Z,100338.31
2019-05-26T14:27:38.691Z,100331.98
2019-05-26T14:30:08.596Z,100335.75
2019-05-26T14:32:37.066Z,100327.02
2019-05-26T14:35:07.036Z,100336.06
2019-05-26T14:37:35.589Z,100330.34
2019-05-26T14:40:09.764Z,100321.45
2019-05-26T14:42:38.841Z,100315.58
2019-05-26T14:45:10.459Z,100319.30
2019-05-26T14:47:38.890Z,100306.75
2019-05-26T14:50:11.392Z,100313.70
2019-05-26T14:52:39.814Z,100314.21
2019-05-26T14:55:11.333Z,100318.22
2019-05-26T14:57:40.023Z,100318.32
2019-05-26T15:00:09.877Z,100298.52
2019-05-26T15:02:38.468Z,100313.44
2019-05-26T15:05:08.743Z,100309.97
2019-05-26T15:07:37.152Z,100306.72
2019-05-26T15:10:08.790Z,100302.86
2019-05-26T15:12:37.182Z,100296.63
2019-05-26T15:15:07.279Z,100300.64
2019-05-26T15:17:35.843Z,100295.17
2019-05-26T15:20:05.372Z,100294.54
2019-05-26T15:22:34.080Z,100296.95
2019-05-26T15:25:03.271Z,100296.16
2019-05-26T15:27:33.292Z,100292.30
2019-05-26T15:30:01.711Z,100290.05
2019-05-26T15:32:30.111Z,100289.06
2019-05-26T15:34:58.620Z,100278.31
2019-05-26T15:37:27.326Z,100277.53
2019-05-26T15:39:55.732Z,100276.19
2019-05-26T15:42:24.131Z,100275.09
2019-05-26T15:44:54.247Z,100272.83
2019-05-26T15:47:22.718Z,100275.70
2019-05-26T15:49:51.242Z,100266.93
2019-05-26T15:52:19.874Z,100268.82
2019-05-26T15:54:48.324Z,100264.06
2019-05-26T15:57:16.696Z,100262.23
2019-05-26T15:59:45.268Z,100264.34
2019-05-26T16:02:13.954Z,100261.67
2019-05-26T16:04:44.979Z,100262.32
2019-05-26T16:07:12.592Z,100255.73
2019-05-26T16:09:41.143Z,100260.23
2019-05-26T16:12:09.528Z,100259.95
2019-05-26T16:14:38.882Z,100260.53
2019-05-26T16:17:07.357Z,100254.45
2019-05-26T16:19:35.858Z,100250.88
2019-05-26T16:22:05.761Z,100251.30
2019-05-26T16:24:34.170Z,100243.03
2019-05-26T16:27:18.162Z,100240.94
2019-05-26T16:29:33.151Z,100235.05
2019-05-26T16:32:01.904Z,100249.52
2019-05-26T16:34:30.490Z,100255.42
2019-05-26T16:36:58.918Z,100241.98
2019-05-26T16:39:36.547Z,100239.61
2019-05-26T16:41:57.439Z,100240.25
2019-05-26T16:44:27.427Z,100237.30
2019-05-26T16:46:57.025Z,100239.05
2019-05-26T16:49:25.584Z,100237.21
2019-05-26T16:51:53.982Z,100236.46
2019-05-26T16:54:22.494Z,100236.77
2019-05-26T16:56:52.201Z,100231.29
2019-05-26T16:59:22.105Z,100223.55
2019-05-26T17:01:50.589Z,100224.09
2019-05-26T17:04:20.551Z,100222.76
2019-05-26T17:06:48.997Z,100220.30
2019-05-26T17:09:17.384Z,100211.23
2019-05-26T17:11:48.927Z,100214.56
2019-05-26T17:14:17.305Z,100216.25
2019-05-26T17:16:45.719Z,100216.02
2019-05-26T17:19:14.278Z,100211.66
2019-05-26T17:21:42.679Z,100205.88
2019-05-26T17:24:11.068Z,100211.72
2019-05-26T17:26:39.509Z,100206.20
2019-05-26T17:29:07.889Z,100204.88
2019-05-26T17:31:36.457Z,100204.62
2019-05-26T17:34:04.927Z,100204.34
2019-05-26T17:36:33.380Z,100201.62
2019-05-26T17:39:01.951Z,100201.91
2019-05-26T17:41:30.475Z,100165.87
2019-05-26T17:43:58.959Z,100203.66
2019-05-26T17:46:27.394Z,100200.09
2019-05-26T17:48:55.772Z,100192.13
2019-05-26T17:51:24.333Z,100200.14
2019-05-26T17:53:52.823Z,100206.27
2019-05-26T17:56:21.529Z,100200.50
2019-05-26T17:58:49.960Z,100198.27
2019-05-26T18:01:19.903Z,100196.09
2019-05-26T18:03:48.307Z,100193.05
2019-05-26T18:06:16.800Z,100193.36
2019-05-26T18:08:46.785Z,100198.33
2019-05-26T18:11:15.210Z,100195.83
2019-05-26T18:13:46.817Z,100187.83
2019-05-26T18:16:15.596Z,100193.61
2019-05-26T18:18:44.088Z,100180.66
2019-05-26T18:21:13.995Z,100188.61
2019-05-26T18:23:42.405Z,100178.11
2019-05-26T18:26:10.904Z,100184.71
2019-05-26T18:28:39.595Z,100179.18
2019-05-26T18:31:08.008Z,100188.48
2019-05-26T18:33:36.430Z,100188.98
2019-05-26T18:36:04.827Z,100184.53
2019-05-26T18:38:33.506Z,100183.61
2019-05-26T18:41:01.938Z,100178.85
2019-05-26T18:43:30.401Z,100173.86
2019-05-26T18:45:58.796Z,100178.19
2019-05-26T18:48:27.451Z,100177.55
2019-05-26T18:50:55.761Z,100176.09
2019-05-26T18:53:24.360Z,100175.75
2019-05-26T18:55:52.745Z,100175.93
2019-05-26T18:58:21.158Z,100167.84
2019-05-26T19:00:49.825Z,100172.70
2019-05-26T19:03:18.831Z,100172.89
2019-05-26T19:05:47.244Z,100173.05
2019-05-26T19:08:15.731Z,100170.51
2019-05-26T19:10:44.222Z,100170.66
2019-05-26T19:13:12.715Z,100171.10
2019-05-26T19:15:41.117Z,100175.94
2019-05-26T19:18:19.491Z,100172.83
2019-05-26T19:20:39.676Z,100171.05
2019-05-26T19:23:08.136Z,100172.02
2019-05-26T19:25:36.687Z,100169.96
2019-05-26T19:28:05.346Z,100171.25
2019-05-26T19:30:34.430Z,100173.33
2019-05-26T19:33:02.807Z,100171.31
2019-05-26T19:35:31.218Z,100174.50
2019-05-26T19:37:59.617Z,100173.52
2019-05-26T19:40:28.026Z,100180.53
2019-05-26T19:42:56.424Z,100184.52
2019-05-26T19:45:26.335Z,100173.99
2019-05-26T19:47:56.237Z,100178.50
2019-05-26T19:50:25.115Z,100173.45
2019-05-26T19:52:53.593Z,100176.37
2019-05-26T19:55:21.992Z,100174.88
2019-05-26T19:57:50.451Z,100175.05
2019-05-26T20:00:20.457Z,100179.83
2019-05-26T20:02:48.908Z,100186.80
2019-05-26T20:05:18.392Z,100183.09
2019-05-26T20:07:46.776Z,100178.31
2019-05-26T20:10:18.460Z,100182.58
2019-05-26T20:12:46.991Z,100183.84
2019-05-26T20:15:18.358Z,100189.47
2019-05-26T20:17:46.733Z,100186.06
2019-05-26T20:20:15.897Z,100185.66
2019-05-26T20:22:44.302Z,100183.37
2019-05-26T20:25:13.129Z,100183.52
2019-05-26T20:27:41.504Z,100175.45
2019-05-26T20:30:10.651Z,100177.22
2019-05-26T20:32:39.057Z,100182.09
2019-05-26T20:35:09.548Z,100177.38
2019-05-26T20:37:37.925Z,100177.30
2019-05-26T20:40:08.689Z,100175.80
2019-05-26T20:42:37.160Z,100175.91
2019-05-26T20:45:07.964Z,100173.38
2019-05-26T20:47:36.461Z,100171.12
2019-05-26T20:50:09.997Z,100171.84
2019-05-26T20:52:38.428Z,100173.39
2019-05-26T20:55:08.487Z,100167.28
2019-05-26T20:57:36.862Z,100168.84
2019-05-26T21:00:11.407Z,100169.78
2019-05-26T21:02:40.759Z,100166.16
2019-05-26T21:05:09.612Z,100167.20
2019-05-26T21:07:38.055Z,100166.59
2019-05-26T21:10:08.446Z,100162.69
2019-05-26T21:12:36.956Z,100164.00
2019-05-26T21:15:06.904Z,100167.20
2019-05-26T21:17:35.592Z,100166.02
2019-05-26T21:20:07.512Z,100161.80
2019-05-26T21:22:35.894Z,100129.88
2019-05-26T21:25:06.544Z,100161.69
2019-05-26T21:27:34.918Z,100141.92
2019-05-26T21:30:05.174Z,100156.70
2019-05-26T21:32:33.667Z,100164.00
2019-05-26T21:35:02.046Z,100161.73
2019-05-26T21:37:30.657Z,100161.69
2019-05-26T21:39:59.044Z,100153.45
2019-05-26T21:42:27.459Z,100155.28
2019-05-26T21:44:55.854Z,100155.28
2019-05-26T21:47:24.293Z,100150.58
2019-05-26T21:49:52.821Z,100152.18
2019-05-26T21:52:21.289Z,100152.97
2019-05-26T21:54:49.732Z,100147.42
2019-05-26T21:57:18.132Z,100145.45
2019-05-26T21:59:46.780Z,100148.50
2019-05-26T22:02:16.447Z,100151.23
2019-05-26T22:04:44.910Z,100151.43
2019-05-26T22:07:13.311Z,100146.21
2019-05-26T22:09:41.877Z,100145.92
2019-05-26T22:12:10.249Z,100155.47
2019-05-26T22:14:38.674Z,100140.41
2019-05-26T22:17:07.101Z,100138.16
2019-05-26T22:19:35.751Z,100141.11
2019-05-26T22:22:07.035Z,100139.75
2019-05-26T22:24:35.423Z,100105.80
2019-05-26T22:27:04.975Z,100142.75
2019-05-26T22:29:33.564Z,100144.34
2019-05-26T22:32:01.982Z,100140.43
2019-05-26T22:34:30.740Z,100140.84
2019-05-26T22:37:00.675Z,100141.19
2019-05-26T22:39:29.072Z,100140.70
2019-05-26T22:41:57.507Z,100145.61
2019-05-26T22:44:25.982Z,100132.56
2019-05-26T22:46:54.381Z,100135.91
2019-05-26T22:49:22.805Z,100132.45
2019-05-26T22:51:51.224Z,100139.14
2019-05-26T22:54:19.646Z,100139.73
2019-05-26T22:56:48.151Z,100140.68
2019-05-26T22:59:16.576Z,100138.58
2019-05-26T23:01:46.512Z,100131.02
2019-05-26T23:04:14.932Z,100124.06
2019-05-26T23:06:44.847Z,100126.65
2019-05-26T23:09:14.768Z,100123.21
2019-05-26T23:11:43.172Z,100124.96
2019-05-26T23:14:11.562Z,100120.20
2019-05-26T23:16:40.038Z,100110.28
2019-05-26T23:19:18.725Z,100107.72
2019-05-26T23:21:38.559Z,100110.60
2019-05-26T23:24:07.003Z,100110.73
2019-05-26T23:26:35.553Z,100109.89
2019-05-26T23:29:04.601Z,100113.32
2019-05-26T23:31:33.362Z,100081.33
2019-05-26T23:34:01.800Z,100103.11
2019-05-26T23:36:30.201Z,100105.37
2019-05-26T23:38:58.596Z,100100.31
2019-05-26T23:41:27.049Z,100100.17
2019-05-26T23:43:55.544Z,100106.06
2019-05-26T23:46:23.974Z,100101.52
2019-05-26T23:48:52.392Z,100097.04
2019-05-26T23:51:20.950Z,100102.41
2019-05-26T23:53:49.353Z,100095.77
2019-05-26T23:56:17.756Z,100094.84
2019-05-26T23:58:46.147Z,100094.78
